長崎空港の過去48時間の天気

長崎空港 (Nagasaki)

現在時刻: 8/17 00:37 JST (8/16 15:37 UTC) 以下の時間は現地時間です。

過去48時間のMETAR気象情報
時間 風向 風速(m/s) 視程 気温(℃) 湿度(%) 気圧(hPa) 天気現象
16 21:00 南南東 4 10km以上 29 79 1007
16 20:00 南東 5 10km以上 29 79 1007
16 19:00 南南東 5 10km以上 30 75 1006
16 18:00 2 10km以上 31 70 1006
16 17:00 東南東 2 10km以上 31 75 1006
16 16:00 南東 3 10km以上 32 67 1006
16 15:00 東南東 4 10km以上 34 53 1005
16 14:00 東南東 5 10km以上 34 56 1006
16 13:00 南東 5 10km以上 34 60 1006
16 12:00 東南東 5 10km以上 34 56 1007
16 11:00 南東 5 10km以上 32 63 1007
16 10:30 南東 4 10km以上 32 63 1007
16 10:00 南東 5 10km以上 30 79 1007
16 09:00 南南東 4 10km以上 29 84 1007
16 08:00 南東 5 10km以上 29 84 1006
16 07:00 南南東 4 10km以上 28 84 1006
16 06:10 南東 4 10km以上 28 84 1006
15 21:00 南東 5 10km以上 28 84 1007
15 20:00 南東 3 10km以上 28 84 1006
15 19:00 南東 5 10km以上 28 89 1006
15 18:00 南東 3 10km以上 29 84 1006 弱いしゅう雨
15 17:00 南南東 4 10km以上 30 79 1006
15 16:00 南南東 4 10km以上 30 84 1006
15 15:00 南東 4 10km以上 29 84 1006
15 14:23 南南東 7 10km以上 29 89 1006 弱いしゅう雨
15 14:16 4 10km以上 28 89 1006 しゅう雨
15 14:00 2 10km以上 28 89 1006 周辺でしゅう雨
15 13:00 不定 1 10km以上 28 89 1007
15 12:00 2 10km以上 26 94 1007 弱い雨
15 11:34 東南東 3 10km以上 26 94 1007 しゅう雨
15 11:00 2 10km以上 26 100 1007 弱いしゅう雨
15 10:43 東南東 4 10km以上 26 94 1007 弱いしゅう雨
15 10:15 南東 6 8000m 26 94 1007 しゅう雨
15 10:00 南東 5 10km以上 26 94 1008 弱いしゅう雨
15 09:00 南東 4 8000m 26 94 1007 弱いしゅう雨
15 08:35 南東 5 5000m 25 100 1007 しゅう雨 もや
15 08:28 南東 6 4000m 25 100 1007 強いしゅう雨 もや
15 08:10 東南東 5 4000m 25 100 1007 しゅう雨 もや
15 08:00 東南東 6 3000m 25 100 1007 しゅう雨 もや
15 07:45 東南東 6 3000m 25 100 1007 しゅう雨 もや
15 07:22 南東 7 2500m 26 94 1007 強いしゅう雨 もや
15 07:18 南東 7 3000m 25 100 1007 しゅう雨 もや
15 07:00 南南東 6 4000m 25 100 1007 しゅう雨 もや
15 06:37 東南東 2 4000m 25 94 1006 しゅう雨 もや
15 06:10 西南西 1 6000m 26 89 1006 弱いしゅう雨
RJFU 161200Z 16008KT 9999 FEW035 BKN/// 29/25 Q1007
RJFU 161100Z 14009KT 9999 FEW035 SCT150 BKN/// 29/25 Q1007
RJFU 161000Z 15009KT 9999 FEW035 SCT130 BKN150 30/25 Q1006
RJFU 160900Z 19003KT 140V230 9999 FEW035 FEW040CB SCT130 BKN150 31/25 Q1006
RJFU 160800Z 12004KT 360V170 9999 FEW040 SCT130 BKN150 31/26 Q1006
RJFU 160700Z 14006KT 9999 FEW040 SCT150 BKN/// 32/25 Q1006
RJFU 160600Z 11008KT 9999 FEW040 BKN150 BKN/// 34/23 Q1005
RJFU 160500Z 12009KT 9999 FEW040 SCT130 BKN150 34/24 Q1006
RJFU 160400Z 13009KT 9999 FEW030 BKN150 BKN/// 34/25 Q1006
RJFU 160300Z 11010KT 9999 FEW030 SCT040 BKN150 34/24 Q1007
RJFU 160200Z 13009KT 9999 FEW025 BKN170 BKN/// 32/24 Q1007
RJFU 160130Z 13008KT 9999 FEW025 BKN170 BKN/// 32/24 Q1007 RMK 1CU025 5AC170 A2974
RJFU 160100Z 13009KT 110V170 9999 FEW025 SCT140 BKN170 30/26 Q1007
RJFU 160000Z 16007KT 9999 FEW020 BKN150 BKN/// 29/26 Q1007
RJFU 152300Z 14010KT 9999 FEW035 BKN150 BKN/// 29/26 Q1006
RJFU 152200Z 15008KT 9999 FEW030 BKN150 BKN/// 28/25 Q1006
RJFU 152110Z 13007KT 9999 FEW030 SCT050 BKN/// 28/25 Q1006 RMK 1CU030 3SC050 A2972
RJFU 151200Z 13009KT 9999 FEW025 SCT170 BKN/// 28/25 Q1007
RJFU 151100Z 13006KT 9999 FEW025 BKN120 BKN170 28/25 Q1006
RJFU 151000Z 13009KT 9999 FEW025 SCT060 BKN120 28/26 Q1006
RJFU 150900Z 13006KT 9999 -SHRA FEW010 SCT025 BKN120 29/26 Q1006
RJFU 150800Z 15007KT 9999 FEW005 SCT025 BKN100 30/26 Q1006
RJFU 150700Z 15008KT 9999 FEW005 BKN030 BKN110 30/27 Q1006
RJFU 150600Z 14007KT 9999 FEW003 SCT020 BKN130 29/26 Q1006
RJFU 150523Z 15013KT 9999 R32/1000VP1800U -SHRA FEW005 SCT020 BKN070 29/27 Q1006 RMK 1ST005 3CU020 6AC070 A2973
RJFU 150516Z 17008KT 9999 R32/1000VP1800D SHRA FEW005 SCT030 BKN070 28/26 Q1006 RMK 1ST005 4CU030 6AC070 A2973
RJFU 150500Z 18004KT 150V220 9999 VCSH FEW005 SCT030 BKN070 28/26 Q1006
RJFU 150400Z VRB01KT 9999 FEW005 SCT100 BKN140 28/26 Q1007
RJFU 150300Z 09004KT 9999 -RA FEW005 SCT040 BKN090 26/25 Q1007
RJFU 150234Z 11005KT 080V150 9999 SHRA FEW005 SCT030 BKN040 26/25 Q1007 RMK 1ST005 3CU030 5CU040 A2976
RJFU 150200Z 10003KT 9999 -SHRA FEW005 SCT030 BKN040 26/26 Q1007
RJFU 150143Z 12007KT 9999 -SHRA FEW005 SCT025 BKN040 26/25 Q1007 RMK 1ST005 3CU025 5CU040 A2976
RJFU 150115Z 13011KT 8000 SHRA FEW005 SCT020 BKN030 26/25 Q1007 RMK 1ST005 3CU020 5CU030 A2976
RJFU 150100Z 13010KT 9999 -SHRA FEW005 SCT025 BKN040 26/25 Q1008
RJFU 150000Z 13007KT 100V160 8000 -SHRA FEW005 SCT020 BKN030 26/25 Q1007
RJFU 142335Z 13009KT 5000 R32/1800U SHRA BR FEW005 BKN015 BKN020 25/25 Q1007 RMK 1ST005 5CU015 7CU020 A2975
RJFU 142328Z 14012KT 4000 R32/1800D +SHRA BR FEW005 SCT010 BKN015 25/25 Q1007 RMK 1ST005 3CU010 6CU015 A2975
RJFU 142310Z 12010KT 4000 R32/1700N SHRA BR FEW005 BKN015 BKN020 25/25 Q1007 RMK 1ST005 5CU015 7CU020 A2975
RJFU 142300Z 12012KT 3000 SHRA BR FEW005 BKN015 BKN020 25/25 Q1007
RJFU 142245Z 12012KT 3000 R32/1100VP1800U SHRA BR FEW005 SCT010 BKN020 25/25 Q1007 RMK 1ST005 4CU010 7CU020 A2974
RJFU 142222Z 13013KT 2500 R32/1300VP1800D +SHRA BR FEW003 SCT010 BKN020 26/25 Q1007 RMK 1ST003 4CU010 7CU020 A2974
RJFU 142218Z 13013KT 3000 SHRA BR FEW003 SCT010 BKN020 25/25 Q1007 RMK 1ST003 3CU010 5CU020 A2974
RJFU 142200Z 15011KT 4000 SHRA BR FEW003 SCT015 BKN030 25/25 Q1007
RJFU 142137Z 12003KT 080V140 4000 SHRA BR FEW008 SCT015 BKN030 25/24 Q1006 RMK 1ST008 3CU015 5CU030 A2973
RJFU 142110Z 25001KT 6000 -SHRA FEW010 SCT020 BKN040 26/24 Q1006 RMK 1CU010 3CU020 5CU040 A2972